Time;durP1;ratioP1;P1;durP2;ratioP2;P2;SDS_P1;SDS_P2;PMS_P1;PMS_P2;Temp;Humidity;BMP_temperature;BMP_pressure;BME280_temperature;BME280_humidity;BME280_pressure;Samples;Min_cycle;Max_cycle;Signal;HPM_P1;HPM_P2
2022/07/08 00:02:47;;;;;;;3.87;1.00;;;;;;;17.23;51.07;101841.81;10329436;28;20197;-85
2022/07/08 00:07:50;;;;;;;5.83;1.33;;;;;;;17.81;49.08;101834.75;10335161;28;20216;-86
2022/07/08 00:12:53;;;;;;;2.92;0.60;;;;;;;17.08;50.17;101841.25;10388615;28;20351;-86
2022/07/08 00:17:55;;;;;;;2.67;0.63;;;;;;;17.54;49.26;101835.59;10391232;28;20246;-85
2022/07/08 00:22:58;;;;;;;5.30;0.57;;;;;;;17.75;48.87;101834.06;10346055;28;20235;-87
2022/07/08 00:28:00;;;;;;;8.25;0.90;;;;;;;17.11;50.22;101837.78;10391256;28;20233;-86
2022/07/08 00:33:03;;;;;;;6.57;0.93;;;;;;;16.93;51.71;101837.53;10360354;28;20251;-86
2022/07/08 00:38:05;;;;;;;2.58;1.00;;;;;;;17.18;51.26;101841.03;10330812;28;20644;-86
2022/07/08 00:43:23;;;;;;;2.85;0.50;;;;;;;17.91;49.27;101846.69;10328164;28;20231;-86
2022/07/08 00:48:27;;;;;;;4.80;0.60;;;;;;;17.19;50.55;101845.56;10360682;28;20209;-86
2022/07/08 00:53:30;;;;;;;4.05;1.10;;;;;;;17.56;49.26;101853.94;10351667;28;20227;-86
2022/07/08 00:58:33;;;;;;;5.23;0.73;;;;;;;16.85;51.75;101857.16;10349435;28;20193;-86
2022/07/08 01:03:36;;;;;;;6.73;0.77;;;;;;;17.54;50.59;101850.56;10362786;28;20200;-85
2022/07/08 01:08:40;;;;;;;3.83;1.00;;;;;;;16.99;52.84;101861.69;10328266;28;20264;-86
2022/07/08 01:13:43;;;;;;;7.33;1.10;;;;;;;17.44;51.82;101853.59;10327527;28;20189;-86
2022/07/08 01:18:45;;;;;;;5.43;1.00;;;;;;;17.05;52.04;101867.28;10376051;28;20181;-85
2022/07/08 01:23:48;;;;;;;7.97;1.00;;;;;;;17.04;51.19;101869.28;10343384;28;20193;-86
2022/07/08 01:28:51;;;;;;;7.72;0.70;;;;;;;16.59;53.48;101870.84;10343385;28;20217;-86
2022/07/08 01:33:53;;;;;;;6.30;0.85;;;;;;;16.89;52.90;101872.34;10375482;28;20201;-85
2022/07/08 01:38:56;;;;;;;4.93;0.80;;;;;;;16.82;51.77;101864.28;10349225;28;20185;-86
2022/07/08 01:43:58;;;;;;;7.40;1.10;;;;;;;16.54;53.75;101868.94;10384669;28;20251;-85
2022/07/08 01:49:01;;;;;;;4.73;0.60;;;;;;;17.11;52.30;101860.41;10367153;28;20217;-85
2022/07/08 01:54:03;;;;;;;7.28;0.88;;;;;;;17.39;51.34;101865.00;10366532;28;20553;-85
2022/07/08 01:59:06;;;;;;;7.38;1.00;;;;;;;17.74;50.11;101849.34;10367281;28;20223;-86
2022/07/08 02:04:09;;;;;;;3.45;0.63;;;;;;;17.65;50.70;101848.38;10334454;28;20268;-85
2022/07/08 02:09:11;;;;;;;5.13;0.88;;;;;;;17.24;51.26;101848.31;10366378;28;20263;-86
2022/07/08 02:14:15;;;;;;;5.75;0.73;;;;;;;17.58;50.17;101848.81;10350073;28;20236;-85
2022/07/08 02:19:17;;;;;;;6.82;0.98;;;;;;;17.46;50.36;101845.66;10349817;28;20652;-86
2022/07/08 02:24:20;;;;;;;7.45;1.17;;;;;;;17.18;51.19;101843.88;10365613;28;20197;-85
2022/07/08 02:29:22;;;;;;;5.30;0.88;;;;;;;17.41;50.76;101842.91;10365850;28;20217;-86
2022/07/08 02:34:26;;;;;;;5.15;0.80;;;;;;;17.71;49.87;101832.16;10365183;28;20189;-85
2022/07/08 02:39:28;;;;;;;7.28;1.05;;;;;;;16.81;52.22;101845.63;10365481;28;20232;-86
2022/07/08 02:44:31;;;;;;;5.93;1.40;;;;;;;16.46;54.42;101857.47;10364703;28;20582;-85
2022/07/08 02:49:33;;;;;;;5.45;0.80;;;;;;;17.29;52.29;101853.84;10408209;28;20247;-86
2022/07/08 02:54:36;;;;;;;7.22;1.33;;;;;;;16.70;53.78;101852.59;10389088;28;20197;-86
2022/07/08 02:59:39;;;;;;;4.33;1.10;;;;;;;16.97;53.61;101860.34;10388966;28;20239;-87
2022/07/08 03:04:42;;;;;;;8.87;1.20;;;;;;;16.26;56.15;101850.09;10403805;28;20217;-87
2022/07/08 03:09:44;;;;;;;7.33;1.43;;;;;;;16.66;56.03;101865.66;10384571;28;20213;-86
2022/07/08 03:14:46;;;;;;;7.47;1.10;;;;;;;16.80;55.65;101872.22;10347771;28;20224;-86
2022/07/08 03:19:49;;;;;;;8.73;1.10;;;;;;;17.11;55.07;101871.72;10347527;28;20483;-85
2022/07/08 03:24:52;;;;;;;6.82;1.15;;;;;;;16.77;56.17;101874.78;10355037;28;20189;-85
2022/07/08 03:29:54;;;;;;;8.30;1.10;;;;;;;17.18;54.49;101877.78;10352949;28;20209;-86
2022/07/08 03:34:57;;;;;;;8.43;1.50;;;;;;;17.03;55.83;101880.88;10371406;28;20219;-85
2022/07/08 03:41:19;;;;;;;3.45;0.82;;;;;;;16.74;56.61;101876.25;10397812;28;20283;-86
2022/07/08 03:45:22;;;;;;;7.40;1.53;;;;;;;16.87;56.81;101878.28;10399629;28;20509;-87
2022/07/08 03:50:25;;;;;;;7.25;1.40;;;;;;;17.04;56.26;101879.72;10367959;28;20208;-85
2022/07/08 03:55:28;;;;;;;5.68;1.10;;;;;;;16.11;58.92;101887.84;10365174;28;20486;-86
2022/07/08 04:00:31;;;;;;;5.83;1.00;;;;;;;16.91;56.62;101887.84;10372072;28;20192;-86
2022/07/08 04:05:41;;;;;;;5.50;1.08;;;;;;;17.11;55.80;101892.34;10401663;28;20220;-86
2022/07/08 04:10:43;;;;;;;5.70;1.10;;;;;;;17.07;56.06;101882.78;10418613;28;20605;-86
2022/07/08 04:15:46;;;;;;;6.15;1.20;;;;;;;16.81;56.66;101890.84;10402422;28;20239;-87
2022/07/08 04:20:49;;;;;;;4.83;0.87;;;;;;;16.65;57.11;101903.50;10366491;28;20235;-87
2022/07/08 04:25:51;;;;;;;6.35;1.50;;;;;;;16.76;57.52;101907.84;10368857;28;20250;-86
2022/07/08 04:30:55;;;;;;;4.25;0.90;;;;;;;15.99;60.05;101917.63;10351541;28;20278;-87
2022/07/08 04:35:58;;;;;;;5.27;1.23;;;;;;;16.22;59.33;101920.44;10344413;28;20259;-85
2022/07/08 04:41:00;;;;;;;7.50;1.30;;;;;;;17.46;55.95;101916.34;10394805;28;20259;-85
2022/07/08 04:46:03;;;;;;;5.53;1.37;;;;;;;16.88;57.85;101930.84;10396265;28;20196;-84
2022/07/08 04:51:06;;;;;;;14.85;3.05;;;;;;;17.07;57.69;101938.47;10393768;28;20221;-84
2022/07/08 04:56:10;;;;;;;8.20;2.00;;;;;;;16.70;58.53;101943.00;10380670;28;20205;-86
2022/07/08 05:01:14;;;;;;;14.18;2.42;;;;;;;17.09;57.72;101955.97;10376720;28;20581;-84
2022/07/08 05:06:16;;;;;;;16.83;4.00;;;;;;;17.15;57.70;101960.38;10357715;28;20509;-85
2022/07/08 05:11:19;;;;;;;5.90;1.50;;;;;;;17.39;56.56;101958.31;10381197;28;20232;-83
2022/07/08 05:16:21;;;;;;;7.72;1.40;;;;;;;17.22;57.00;101958.00;10388393;28;20242;-85
2022/07/08 05:21:24;;;;;;;6.75;1.73;;;;;;;16.69;58.12;101969.53;10328424;28;20220;-85
2022/07/08 05:26:26;;;;;;;7.45;1.45;;;;;;;17.63;56.09;101964.69;10366477;28;20196;-84
2022/07/08 05:31:28;;;;;;;5.47;0.80;;;;;;;17.03;57.06;101963.66;10384155;28;20224;-84
2022/07/08 05:36:31;;;;;;;6.05;1.23;;;;;;;17.01;58.02;101962.28;10409628;28;20196;-84
2022/07/08 05:41:34;;;;;;;6.07;1.10;;;;;;;17.27;57.28;101955.09;10395887;28;20193;-85
2022/07/08 05:46:41;;;;;;;5.47;1.47;;;;;;;17.05;57.37;101957.72;10359555;28;20459;-85
2022/07/08 05:51:45;;;;;;;6.00;1.23;;;;;;;16.86;57.93;101958.53;10368101;28;20229;-85
2022/07/08 05:56:47;;;;;;;14.77;2.80;;;;;;;17.03;56.78;101965.66;10378520;28;20251;-84
2022/07/08 06:01:50;;;;;;;7.43;1.77;;;;;;;17.31;55.92;101973.97;10345721;28;20239;-85
2022/07/08 06:06:52;;;;;;;10.98;2.42;;;;;;;16.79;57.21;101969.41;10381417;28;20220;-85
2022/07/08 06:11:55;;;;;;;9.57;1.50;;;;;;;17.72;54.68;101969.63;10386894;28;20274;-85
2022/07/08 06:16:58;;;;;;;8.65;0.98;;;;;;;17.94;52.30;101964.09;10373840;28;20200;-84
2022/07/08 06:22:00;;;;;;;4.60;1.05;;;;;;;17.65;52.51;101970.84;10397201;28;20212;-85
2022/07/08 06:27:03;;;;;;;5.30;0.95;;;;;;;17.01;53.71;101973.59;10376886;28;20197;-85
2022/07/08 06:32:06;;;;;;;5.35;0.85;;;;;;;17.82;51.95;101972.25;10334695;28;20233;-85
2022/07/08 06:37:08;;;;;;;3.58;0.70;;;;;;;17.16;52.41;101976.19;10352147;28;20239;-84
2022/07/08 06:42:11;;;;;;;8.85;0.75;;;;;;;17.64;50.17;101972.00;10337730;28;20271;-84
2022/07/08 06:47:15;;;;;;;6.10;0.77;;;;;;;17.58;51.29;101989.38;10363145;28;20255;-84
2022/07/08 06:52:21;;;;;;;7.60;1.00;;;;;;;17.96;49.58;101975.97;10326670;28;20688;-84
2022/07/08 06:57:24;;;;;;;5.82;1.23;;;;;;;17.36;51.59;101987.22;10373729;28;20216;-84
2022/07/08 07:02:27;;;;;;;4.40;0.80;;;;;;;17.74;50.54;101992.78;10337990;28;20206;-85
2022/07/08 07:07:29;;;;;;;4.20;0.60;;;;;;;18.50;49.79;101994.16;10337648;28;20634;-85
2022/07/08 07:12:32;;;;;;;4.43;1.10;;;;;;;18.95;47.29;101990.31;10343491;28;20571;-85
2022/07/08 07:17:35;;;;;;;4.90;0.90;;;;;;;19.30;46.99;101987.84;10330030;28;20225;-85
2022/07/08 07:22:37;;;;;;;3.55;0.75;;;;;;;19.26;46.12;101995.31;10316706;28;20351;-85
2022/07/08 07:27:40;;;;;;;5.47;1.00;;;;;;;18.67;48.21;101997.22;10334197;28;20250;-85
2022/07/08 07:32:43;;;;;;;5.72;0.70;;;;;;;17.32;51.37;102000.25;10392389;28;20282;-85
2022/07/08 07:37:45;;;;;;;6.60;0.85;;;;;;;18.65;49.28;101986.19;10388349;28;20231;-85
2022/07/08 07:42:47;;;;;;;7.70;1.00;;;;;;;19.39;45.86;102000.09;10380192;28;20189;-85
2022/07/08 07:47:53;;;;;;;5.10;1.10;;;;;;;18.32;48.20;101993.94;10395091;28;20192;-85
2022/07/08 07:52:56;;;;;;;7.07;1.13;;;;;;;18.85;47.15;101993.38;10387234;28;20290;-84
2022/07/08 07:57:58;;;;;;;8.40;1.48;;;;;;;18.91;47.41;101994.97;10379772;28;20193;-85
2022/07/08 08:03:00;;;;;;;4.47;0.68;;;;;;;19.12;46.85;102000.19;10348753;28;20250;-86
2022/07/08 08:08:03;;;;;;;2.38;0.63;;;;;;;18.26;49.08;102009.38;10331985;28;20221;-85
2022/07/08 08:13:06;;;;;;;4.80;0.65;;;;;;;19.27;46.91;102002.66;10379494;28;20228;-86
2022/07/08 08:18:08;;;;;;;4.40;1.00;;;;;;;19.46;46.91;102006.13;10364464;28;20192;-85
2022/07/08 08:23:11;;;;;;;3.25;0.63;;;;;;;19.77;46.30;102007.06;10373179;28;20184;-85
2022/07/08 08:28:28;;;;;;;5.30;1.10;;;;;;;19.98;45.05;102017.91;10354616;28;20292;-85
2022/07/08 08:33:31;;;;;;;5.28;1.05;;;;;;;18.78;47.94;102015.66;10322780;28;20267;-86
2022/07/08 08:38:34;;;;;;;5.57;1.23;;;;;;;20.09;46.06;102017.31;10308668;28;20197;-86
2022/07/08 08:43:36;;;;;;;5.28;1.00;;;;;;;19.49;47.52;102016.84;10324980;28;20182;-85
2022/07/08 08:48:39;;;;;;;3.15;0.80;;;;;;;19.17;47.32;102009.41;10323212;28;20251;-85
2022/07/08 08:53:43;;;;;;;5.63;1.27;;;;;;;18.60;49.73;102010.94;10340027;28;20210;-86
2022/07/08 08:58:46;;;;;;;8.98;1.58;;;;;;;19.80;46.15;102012.13;10295394;28;20256;-85
2022/07/08 09:03:49;;;;;;;3.03;0.68;;;;;;;19.72;46.07;102015.69;10311959;28;20507;-83
2022/07/08 09:08:52;;;;;;;7.22;1.25;;;;;;;20.72;44.67;101998.19;10322192;28;20229;-85
2022/07/08 09:14:10;;;;;;;6.13;1.33;;;;;;;20.35;44.79;102011.75;10327655;28;20216;-85
2022/07/08 09:19:13;;;;;;;3.80;0.93;;;;;;;20.27;45.17;102004.00;10324988;28;20193;-85
2022/07/08 09:24:20;;;;;;;4.32;1.23;;;;;;;20.21;44.50;101996.81;10323848;28;20198;-85
2022/07/08 09:29:22;;;;;;;4.30;1.02;;;;;;;21.50;43.37;101984.91;10352929;28;20275;-85
2022/07/08 09:34:25;;;;;;;5.13;1.05;;;;;;;20.79;43.89;102004.22;10377607;28;20209;-85
2022/07/08 09:39:28;;;;;;;7.50;0.98;;;;;;;20.66;44.24;101988.97;10354014;28;20574;-84
2022/07/08 09:44:30;;;;;;;4.35;0.90;;;;;;;21.76;41.67;101982.84;10367181;28;20232;-87
2022/07/08 09:49:34;;;;;;;4.53;1.10;;;;;;;20.99;43.98;101980.84;10381722;28;20197;-85
2022/07/08 09:54:36;;;;;;;4.47;0.77;;;;;;;21.10;43.39;101979.34;10395299;28;20217;-86
2022/07/08 09:59:39;;;;;;;4.05;0.70;;;;;;;21.84;43.37;101973.44;10405743;28;20205;-85
2022/07/08 10:04:42;;;;;;;4.35;0.90;;;;;;;22.02;41.09;101967.72;10383546;28;20224;-87
2022/07/08 10:09:44;;;;;;;3.35;0.57;;;;;;;20.81;43.48;101968.59;10392534;28;20259;-86
2022/07/08 10:14:54;;;;;;;2.42;0.77;;;;;;;20.83;44.44;101976.81;10393279;28;20655;-86
2022/07/08 10:19:57;;;;;;;3.08;0.70;;;;;;;21.92;42.43;101964.06;10377755;28;20197;-85
2022/07/08 10:25:02;;;;;;;3.42;0.90;;;;;;;21.42;43.25;101974.34;10369872;28;20490;-86
2022/07/08 10:30:20;;;;;;;5.07;1.10;;;;;;;21.05;43.99;101967.28;10388021;28;20232;-85
2022/07/08 10:35:27;;;;;;;3.55;0.57;;;;;;;22.11;41.87;101971.38;10375443;28;20196;-87
2022/07/08 10:40:59;;;;;;;7.00;0.95;;;;;;;21.67;42.36;101984.84;10392273;28;20189;-86
2022/07/08 10:46:17;;;;;;;4.15;0.95;;;;;;;22.00;40.18;101981.47;10395137;28;20197;-86
2022/07/08 10:51:20;;;;;;;4.40;1.08;;;;;;;21.53;42.97;101981.38;10389784;28;20204;-88
2022/07/08 10:56:47;;;;;;;5.85;1.27;;;;;;;21.79;42.16;101982.19;10405399;28;20664;-88
2022/07/08 11:02:03;;;;;;;8.00;1.27;;;;;;;22.32;40.36;101977.97;10415325;28;20246;-86
2022/07/08 11:07:16;;;;;;;7.00;1.10;;;;;;;23.28;40.21;101977.09;10365393;28;20244;-87
2022/07/08 11:12:26;;;;;;;2.95;0.93;;;;;;;22.97;40.04;101971.75;10384567;28;20257;-87
2022/07/08 11:17:34;;;;;;;3.25;0.40;;;;;;;22.88;40.89;101967.28;10379587;28;20690;-86
2022/07/08 11:22:38;;;;;;;5.25;0.73;;;;;;;22.86;40.77;101978.22;10391046;28;20213;-86
2022/07/08 11:27:41;;;;;;;5.68;0.77;;;;;;;22.60;41.64;101979.19;10399657;28;20269;-86
2022/07/08 11:32:48;;;;;;;5.13;0.90;;;;;;;22.61;42.02;101969.47;10376492;28;20796;-87
2022/07/08 11:37:50;;;;;;;3.72;0.90;;;;;;;21.78;43.36;101968.28;10371205;28;20251;-86
2022/07/08 11:42:53;;;;;;;4.22;1.00;;;;;;;21.78;43.19;101973.97;10382142;28;20267;-87
2022/07/08 11:48:06;;;;;;;6.93;0.73;;;;;;;22.61;42.24;101972.34;10375249;28;20290;-86
2022/07/08 11:53:21;;;;;;;3.22;0.75;;;;;;;22.70;42.03;101965.75;10390814;28;20652;-87
2022/07/08 11:58:24;;;;;;;5.75;0.90;;;;;;;22.60;42.76;101967.78;10375734;28;20231;-83
2022/07/08 12:03:27;;;;;;;4.50;0.80;;;;;;;22.67;43.64;101963.59;10364531;28;20224;-86
2022/07/08 12:08:32;;;;;;;3.28;0.50;;;;;;;23.21;42.02;101971.09;10364521;28;20236;-84
2022/07/08 12:13:43;;;;;;;2.40;0.50;;;;;;;23.18;42.58;101965.22;10381485;28;20257;-87
2022/07/08 12:18:45;;;;;;;5.88;0.88;;;;;;;22.38;44.30;101962.38;10380868;28;20243;-86
2022/07/08 12:23:58;;;;;;;3.58;0.60;;;;;;;23.21;43.00;101945.41;10379551;28;20282;-87
2022/07/08 12:29:11;;;;;;;4.10;0.70;;;;;;;22.42;43.35;101957.66;10373419;28;20248;-84
2022/07/08 12:34:19;;;;;;;4.88;0.63;;;;;;;23.67;41.36;101952.03;10344087;28;20245;-88
2022/07/08 12:39:27;;;;;;;7.10;0.82;;;;;;;22.47;43.15;101946.03;10365110;28;20201;-87
2022/07/08 12:44:30;;;;;;;6.78;0.90;;;;;;;24.18;40.41;101944.06;10337610;28;20672;-89
2022/07/08 12:49:34;;;;;;;4.95;1.02;;;;;;;23.84;40.57;101943.28;10368776;28;20282;-87
2022/07/08 12:54:38;;;;;;;3.58;0.68;;;;;;;24.04;40.97;101936.66;10329873;28;20244;-88
2022/07/08 12:59:41;;;;;;;2.20;0.57;;;;;;;23.52;41.80;101935.53;10359312;28;20233;-85
2022/07/08 13:04:43;;;;;;;3.83;0.85;;;;;;;22.90;43.68;101933.56;10371705;28;20240;-86
2022/07/08 13:09:46;;;;;;;5.35;0.90;;;;;;;23.43;42.18;101944.22;10344008;28;20550;-88
2022/07/08 13:14:48;;;;;;;5.50;1.15;;;;;;;23.22;44.04;101944.22;10359581;28;20297;-84
2022/07/08 13:19:51;;;;;;;5.85;1.00;;;;;;;21.82;45.55;101946.47;10344692;28;20244;-87
2022/07/08 13:24:54;;;;;;;6.80;1.00;;;;;;;24.19;43.77;101937.16;10371719;28;20267;-86
2022/07/08 13:29:57;;;;;;;3.83;0.90;;;;;;;23.80;42.81;101938.59;10372294;28;20303;-86
2022/07/08 13:35:00;;;;;;;3.70;0.55;;;;;;;21.69;48.29;101941.81;10365052;28;20247;-86
2022/07/08 13:40:11;;;;;;;4.88;0.93;;;;;;;22.82;44.52;101923.91;10368755;28;20291;-85
2022/07/08 13:45:13;;;;;;;2.63;0.98;;;;;;;22.85;45.56;101922.34;10394881;28;20194;-86
2022/07/08 13:50:16;;;;;;;6.13;0.82;;;;;;;22.66;45.83;101922.84;10374889;28;20217;-85
2022/07/08 13:55:19;;;;;;;4.20;1.33;;;;;;;23.98;43.27;101920.13;10396022;28;20244;-86
2022/07/08 14:00:22;;;;;;;2.70;0.43;;;;;;;22.98;46.17;101915.53;10381386;28;20193;-86
2022/07/08 14:05:25;;;;;;;5.70;0.88;;;;;;;23.22;44.94;101920.53;10376106;28;20232;-75
2022/07/08 14:10:27;;;;;;;3.65;0.80;;;;;;;23.67;44.06;101906.31;10394883;28;20294;-85
2022/07/08 14:15:30;;;;;;;3.45;0.65;;;;;;;23.63;45.04;101909.03;10393332;28;20309;-87
2022/07/08 14:20:33;;;;;;;3.70;0.73;;;;;;;23.36;45.53;101908.81;10377658;28;20294;-86
2022/07/08 14:25:36;;;;;;;4.93;1.05;;;;;;;23.98;44.97;101898.09;10372248;28;20262;-88
2022/07/08 14:30:39;;;;;;;2.55;0.65;;;;;;;24.00;44.27;101895.69;10376170;28;20330;-86
2022/07/08 14:35:42;;;;;;;4.45;0.70;;;;;;;23.46;45.08;101897.00;10386386;28;20270;-86
2022/07/08 14:40:45;;;;;;;3.90;0.60;;;;;;;23.04;46.74;101899.88;10390223;28;20216;-88
2022/07/08 14:45:49;;;;;;;2.72;0.40;;;;;;;23.56;45.13;101905.09;10369880;28;20255;-89
2022/07/08 14:50:56;;;;;;;2.55;0.60;;;;;;;23.78;44.96;101893.25;10402600;28;20252;-87
2022/07/08 14:55:59;;;;;;;3.83;0.60;;;;;;;23.60;46.20;101897.50;10369051;28;20307;-86
2022/07/08 15:01:02;;;;;;;3.60;0.65;;;;;;;23.65;46.35;101898.09;10365760;28;20608;-88
2022/07/08 15:06:08;;;;;;;6.15;0.93;;;;;;;23.15;45.70;101891.72;10401111;28;20319;-88
2022/07/08 15:11:10;;;;;;;2.60;0.68;;;;;;;23.13;45.97;101885.53;10393566;28;20221;-86
2022/07/08 15:16:12;;;;;;;4.05;1.00;;;;;;;23.43;45.64;101880.56;10398757;28;20232;-87
2022/07/08 15:21:16;;;;;;;3.17;0.82;;;;;;;23.39;46.36;101874.72;10366374;28;20228;-90
2022/07/08 15:26:20;;;;;;;4.47;0.93;;;;;;;24.28;45.38;101864.38;10386615;28;20202;-93
2022/07/08 15:31:22;;;;;;;4.93;0.82;;;;;;;23.77;45.09;101863.00;10369832;28;20225;-88
2022/07/08 15:36:27;;;;;;;1.88;0.77;;;;;;;24.67;43.32;101848.47;10333783;28;20223;-86
2022/07/08 15:41:29;;;;;;;3.60;0.80;;;;;;;24.46;43.97;101862.09;10374854;28;20205;-89
2022/07/08 15:46:33;;;;;;;3.30;0.80;;;;;;;24.84;42.90;101850.22;10384255;28;20205;-91
2022/07/08 15:51:36;;;;;;;3.38;0.80;;;;;;;24.32;44.69;101851.03;10362963;28;20244;-87
2022/07/08 15:56:43;;;;;;;1.52;1.05;;;;;;;24.02;44.95;101853.31;10351408;28;20197;-90
2022/07/08 16:01:46;;;;;;;3.10;0.90;;;;;;;23.18;46.66;101851.91;10401464;28;20197;-87
2022/07/08 16:06:49;;;;;;;6.32;0.85;;;;;;;23.64;45.75;101847.03;10394840;28;20224;-87
2022/07/08 16:11:51;;;;;;;1.50;1.00;;;;;;;24.27;44.51;101831.25;10365419;28;20676;-88
2022/07/08 16:16:55;;;;;;;1.75;0.82;;;;;;;23.95;45.59;101827.34;10360125;28;20366;-89
2022/07/08 16:21:58;;;;;;;4.90;1.15;;;;;;;24.10;44.55;101822.13;10380804;28;20609;-88
2022/07/08 16:27:02;;;;;;;4.95;1.17;;;;;;;24.65;43.71;101822.25;10366228;28;20252;-87
2022/07/08 16:32:06;;;;;;;2.05;0.98;;;;;;;22.98;46.73;101827.09;10375872;28;20252;-89
2022/07/08 16:37:13;;;;;;;1.05;0.77;;;;;;;23.59;45.65;101813.03;10381179;28;20221;-89
2022/07/08 16:42:16;;;;;;;3.38;1.60;;;;;;;24.00;45.19;101804.25;10395877;28;20243;-89
2022/07/08 16:47:21;;;;;;;3.83;1.38;;;;;;;23.71;45.42;101810.19;10379418;28;20207;-86
2022/07/08 16:52:23;;;;;;;4.07;0.98;;;;;;;23.69;45.55;101804.00;10360903;28;20240;-85
2022/07/08 16:57:26;;;;;;;5.25;0.98;;;;;;;23.81;45.90;101800.31;10378333;28;20225;-86
2022/07/08 17:02:30;;;;;;;6.03;1.13;;;;;;;24.60;43.70;101781.66;10361769;28;20228;-87
2022/07/08 17:07:33;;;;;;;5.05;1.38;;;;;;;24.37;44.45;101781.34;10360748;28;20597;-87
2022/07/08 17:12:37;;;;;;;2.50;0.82;;;;;;;24.81;42.79;101776.56;10376999;28;20205;-89
2022/07/08 17:17:40;;;;;;;3.95;0.90;;;;;;;24.77;42.97;101780.53;10370403;28;20671;-87
2022/07/08 17:22:43;;;;;;;1.95;0.98;;;;;;;24.47;43.23;101780.81;10396405;28;20192;-86
2022/07/08 17:27:48;;;;;;;4.35;1.58;;;;;;;23.77;45.03;101774.47;10403688;28;20246;-86
2022/07/08 17:32:51;;;;;;;3.03;0.90;;;;;;;23.10;46.64;101781.47;10376697;28;20256;-85
2022/07/08 17:37:53;;;;;;;5.68;1.50;;;;;;;23.72;45.91;101780.44;10363180;28;20672;-87
2022/07/08 17:42:56;;;;;;;4.72;1.35;;;;;;;23.59;45.90;101768.19;10368571;28;20182;-86
2022/07/08 17:47:58;;;;;;;4.53;1.20;;;;;;;23.45;46.13;101770.53;10349911;28;20262;-84
2022/07/08 17:53:01;;;;;;;3.08;0.93;;;;;;;24.18;45.11;101761.13;10386489;28;20290;-83
2022/07/08 17:58:08;;;;;;;4.10;1.02;;;;;;;24.57;44.04;101754.59;10381313;28;20194;-88
2022/07/08 18:03:19;;;;;;;5.07;1.42;;;;;;;23.88;45.68;101757.66;10392656;28;20594;-86
2022/07/08 18:08:22;;;;;;;5.55;1.13;;;;;;;24.29;45.19;101765.97;10364395;28;20549;-85
2022/07/08 18:13:24;;;;;;;3.63;1.10;;;;;;;23.80;45.97;101764.34;10382727;28;20248;-84
2022/07/08 18:18:31;;;;;;;3.53;1.35;;;;;;;23.35;47.38;101764.47;10408446;28;20553;-85
2022/07/08 18:23:34;;;;;;;7.03;1.90;;;;;;;23.10;47.86;101757.81;10404095;28;20193;-86
2022/07/08 18:28:37;;;;;;;4.18;1.30;;;;;;;23.01;48.48;101742.81;10386697;28;20270;-87
2022/07/08 18:33:40;;;;;;;8.18;1.88;;;;;;;23.71;47.03;101735.91;10369709;28;20555;-89
2022/07/08 18:38:42;;;;;;;6.65;1.27;;;;;;;23.54;46.95;101739.00;10380161;28;20208;-86
2022/07/08 18:43:47;;;;;;;7.22;1.60;;;;;;;23.38;48.36;101740.91;10381637;28;20197;-88
2022/07/08 18:48:49;;;;;;;5.15;1.63;;;;;;;23.63;47.72;101736.84;10365824;28;20225;-87
2022/07/08 18:53:52;;;;;;;2.97;1.33;;;;;;;23.71;48.38;101735.91;10354537;28;20250;-87
2022/07/08 18:58:55;;;;;;;2.22;1.27;;;;;;;23.24;48.15;101739.19;10362846;28;21411;-85
2022/07/08 19:03:57;;;;;;;6.18;1.45;;;;;;;23.88;47.05;101737.66;10339830;28;20564;-86
2022/07/08 19:09:00;;;;;;;3.30;0.95;;;;;;;23.68;47.44;101740.31;10348247;28;20202;-88
2022/07/08 19:14:02;;;;;;;6.55;1.48;;;;;;;23.86;47.06;101738.06;10348704;28;20303;-88
2022/07/08 19:19:05;;;;;;;6.13;1.05;;;;;;;23.35;48.58;101741.63;10378264;28;20188;-87
2022/07/08 19:24:09;;;;;;;2.47;1.20;;;;;;;22.97;48.97;101751.25;10380682;28;20201;-88
2022/07/08 19:29:13;;;;;;;5.63;1.17;;;;;;;23.03;48.77;101747.00;10327917;28;20221;-88
2022/07/08 19:34:17;;;;;;;3.60;1.00;;;;;;;23.54;48.40;101756.13;10352196;28;20217;-89
2022/07/08 19:39:20;;;;;;;4.05;1.48;;;;;;;23.07;48.58;101753.66;10337528;28;20197;-88
2022/07/08 19:44:24;;;;;;;4.38;1.20;;;;;;;22.62;49.58;101756.47;10357838;28;20236;-89
2022/07/08 19:49:28;;;;;;;4.50;1.10;;;;;;;22.66;49.58;101750.91;10360742;28;20228;-88
2022/07/08 19:54:31;;;;;;;4.90;1.35;;;;;;;23.25;48.39;101755.13;10347095;28;20225;-87
2022/07/08 19:59:35;;;;;;;1.80;1.13;;;;;;;23.19;49.12;101765.09;10339276;28;20231;-89
2022/07/08 20:04:37;;;;;;;2.67;1.20;;;;;;;22.93;49.49;101765.41;10326009;28;20230;-88
2022/07/08 20:09:40;;;;;;;3.33;1.25;;;;;;;22.76;50.71;101770.44;10356333;28;20261;-87
2022/07/08 20:14:42;;;;;;;2.65;1.10;;;;;;;22.73;50.82;101768.28;10341837;28;20260;-89
2022/07/08 20:19:46;;;;;;;5.20;1.40;;;;;;;22.41;51.47;101778.44;10348653;28;20221;-90
2022/07/08 20:24:49;;;;;;;3.13;1.20;;;;;;;22.39;51.65;101767.38;10343850;28;20201;-89
2022/07/08 20:29:52;;;;;;;3.40;1.33;;;;;;;22.48;51.78;101770.16;10346738;28;20294;-90
2022/07/08 20:34:56;;;;;;;2.95;1.13;;;;;;;22.28;52.08;101766.13;10356073;28;20237;-89
2022/07/08 20:39:59;;;;;;;4.65;1.30;;;;;;;21.70;53.46;101770.66;10359710;28;20201;-89
2022/07/08 20:45:02;;;;;;;1.63;1.00;;;;;;;22.32;51.51;101766.28;10364233;28;20244;-89
2022/07/08 20:50:05;;;;;;;3.72;1.20;;;;;;;22.21;53.09;101771.53;10371282;28;20216;-89
2022/07/08 20:55:11;;;;;;;2.42;1.30;;;;;;;22.04;53.21;101771.66;10351937;28;20286;-87
2022/07/08 21:00:16;;;;;;;3.22;1.50;;;;;;;22.07;52.92;101765.25;10385571;28;20200;-85
2022/07/08 21:05:19;;;;;;;3.10;1.50;;;;;;;21.91;54.36;101757.31;10359659;28;20270;-90
2022/07/08 21:10:24;;;;;;;3.72;1.83;;;;;;;21.89;54.50;101759.66;10363904;28;20193;-93
2022/07/08 21:15:26;;;;;;;2.28;1.58;;;;;;;21.78;54.55;101769.78;10394928;28;20209;-91
2022/07/08 21:20:28;;;;;;;1.90;1.73;;;;;;;21.80;54.42;101760.88;10381303;28;20193;-88
2022/07/08 21:25:32;;;;;;;4.43;1.70;;;;;;;21.68;55.19;101753.06;10345679;28;20196;-86
2022/07/08 21:30:35;;;;;;;3.97;1.90;;;;;;;21.70;54.79;101753.56;10372232;28;20221;-84
2022/07/08 21:35:37;;;;;;;2.17;1.65;;;;;;;21.58;54.94;101753.47;10379853;28;20244;-86
2022/07/08 21:40:40;;;;;;;3.20;1.75;;;;;;;21.52;55.14;101754.84;10384212;28;20197;-84
2022/07/08 21:45:42;;;;;;;4.47;1.90;;;;;;;21.46;55.15;101751.34;10396815;28;20198;-84
2022/07/08 21:50:44;;;;;;;2.97;1.70;;;;;;;21.44;55.24;101747.16;10367776;28;20201;-83
2022/07/08 21:55:47;;;;;;;4.63;2.25;;;;;;;21.37;56.08;101752.56;10348657;28;20240;-87
2022/07/08 22:00:50;;;;;;;2.75;1.67;;;;;;;21.26;56.48;101742.75;10367047;28;20193;-84
2022/07/08 22:05:53;;;;;;;6.35;2.45;;;;;;;21.35;56.07;101743.53;10350875;28;20205;-84
2022/07/08 22:10:58;;;;;;;8.00;2.25;;;;;;;21.23;56.54;101740.56;10352282;28;20482;-88
2022/07/08 22:16:00;;;;;;;5.55;2.03;;;;;;;21.26;56.55;101743.59;10352482;28;20201;-91
2022/07/08 22:21:03;;;;;;;5.13;1.80;;;;;;;21.29;56.34;101744.88;10367980;28;20177;-87
2022/07/08 22:26:06;;;;;;;5.25;2.13;;;;;;;21.26;56.53;101743.59;10367416;28;20227;-84
2022/07/08 22:31:08;;;;;;;4.13;1.88;;;;;;;21.12;57.32;101743.75;10338564;28;20222;-82
2022/07/08 22:36:12;;;;;;;4.00;2.40;;;;;;;21.16;56.97;101744.72;10309157;28;20241;-86
2022/07/08 22:41:14;;;;;;;3.65;2.53;;;;;;;21.06;57.44;101736.56;10347897;28;20549;-83
2022/07/08 22:46:16;;;;;;;3.92;2.20;;;;;;;20.86;58.83;101743.00;10359910;28;20185;-84
2022/07/08 22:51:19;;;;;;;10.77;5.40;;;;;;;20.89;58.40;101736.59;10354710;28;20502;-90
2022/07/08 22:56:21;;;;;;;4.68;2.17;;;;;;;20.76;59.13;101737.63;10364193;28;20538;-85
2022/07/08 23:01:24;;;;;;;3.75;2.28;;;;;;;20.83;58.63;101723.75;10346614;28;20197;-85
2022/07/08 23:06:26;;;;;;;4.97;2.10;;;;;;;20.60;59.91;101725.16;10363730;28;20209;-93
2022/07/08 23:11:30;;;;;;;4.60;2.20;;;;;;;20.71;59.46;101726.47;10366222;28;20193;-93
2022/07/08 23:16:33;;;;;;;5.80;2.55;;;;;;;20.79;58.96;101728.44;10349956;28;20451;-87